Time;durP1;ratioP1;P1;durP2;ratioP2;P2;SDS_P1;SDS_P2;PMS_P1;PMS_P2;Temp;Humidity;BMP_temperature;BMP_pressure;BME280_temperature;BME280_humidity;BME280_pressure;Samples;Min_cycle;Max_cycle;Signal;HPM_P1;HPM_P2
2024/01/05 00:00:26;;;;;;;6.93;2.70;;;;;;;;;;5059028;28;20171;-57
2024/01/05 00:02:54;;;;;;;10.68;3.50;;;;;;;;;;5073922;28;20051;-58
2024/01/05 00:05:19;;;;;;;8.30;3.33;;;;;;;;;;5090868;28;20021;-57
2024/01/05 00:07:44;;;;;;;6.47;2.95;;;;;;;;;;5090554;28;20024;-57
2024/01/05 00:10:09;;;;;;;8.07;3.00;;;;;;;;;;5070789;28;20041;-57
2024/01/05 00:12:34;;;;;;;6.43;2.80;;;;;;;;;;5070129;28;20546;-57
2024/01/05 00:15:00;;;;;;;7.47;3.20;;;;;;;;;;5066343;28;20147;-56
2024/01/05 00:17:25;;;;;;;9.60;2.83;;;;;;;;;;5050222;28;20033;-57
2024/01/05 00:19:50;;;;;;;7.68;3.10;;;;;;;;;;5060627;28;20111;-57
2024/01/05 00:22:15;;;;;;;7.43;3.05;;;;;;;;;;5072045;28;20039;-57
2024/01/05 00:24:40;;;;;;;7.32;3.40;;;;;;;;;;5052863;28;20017;-57
2024/01/05 00:27:05;;;;;;;8.00;3.47;;;;;;;;;;5058941;28;20098;-57
2024/01/05 00:29:31;;;;;;;6.97;3.10;;;;;;;;;;5068292;28;20025;-56
2024/01/05 00:31:56;;;;;;;7.88;3.35;;;;;;;;;;5068026;28;20404;-57
2024/01/05 00:34:21;;;;;;;7.80;3.45;;;;;;;;;;5069320;28;20021;-58
2024/01/05 00:36:46;;;;;;;9.38;3.40;;;;;;;;;;5069685;28;20043;-57
2024/01/05 00:39:11;;;;;;;7.63;3.22;;;;;;;;;;5068448;28;20491;-57
2024/01/05 00:41:36;;;;;;;9.90;3.58;;;;;;;;;;5067659;28;20020;-57
2024/01/05 00:44:01;;;;;;;9.40;3.70;;;;;;;;;;5069916;28;20028;-57
2024/01/05 00:46:26;;;;;;;9.38;3.58;;;;;;;;;;5063774;28;20552;-58
2024/01/05 00:48:52;;;;;;;10.63;4.07;;;;;;;;;;5052800;28;20025;-56
2024/01/05 00:51:17;;;;;;;9.60;3.57;;;;;;;;;;5072892;28;20023;-57
2024/01/05 00:53:42;;;;;;;11.85;4.53;;;;;;;;;;5075122;28;20449;-57
2024/01/05 00:56:07;;;;;;;11.32;4.28;;;;;;;;;;5069696;28;20088;-57
2024/01/05 00:58:32;;;;;;;8.40;3.83;;;;;;;;;;5054258;28;20025;-56
2024/01/05 01:00:57;;;;;;;8.25;3.67;;;;;;;;;;5071073;28;20052;-57
2024/01/05 01:03:23;;;;;;;8.47;3.80;;;;;;;;;;5061672;28;20021;-57
2024/01/05 01:05:48;;;;;;;10.93;3.97;;;;;;;;;;5086637;28;20055;-57
2024/01/05 01:08:13;;;;;;;9.87;4.10;;;;;;;;;;5093516;28;20020;-57
2024/01/05 01:10:39;;;;;;;9.25;4.15;;;;;;;;;;5068530;28;20430;-57
2024/01/05 01:13:04;;;;;;;8.90;4.00;;;;;;;;;;5058618;28;20020;-57
2024/01/05 01:15:29;;;;;;;8.98;4.05;;;;;;;;;;5059664;28;20036;-57
2024/01/05 01:17:54;;;;;;;9.57;4.47;;;;;;;;;;5052702;28;20036;-57
2024/01/05 01:20:20;;;;;;;10.80;4.07;;;;;;;;;;5069857;28;20527;-57
2024/01/05 01:22:45;;;;;;;9.47;3.83;;;;;;;;;;5067682;28;20021;-57
2024/01/05 01:25:10;;;;;;;8.68;3.88;;;;;;;;;;5053000;28;20029;-57
2024/01/05 01:27:35;;;;;;;8.40;3.10;;;;;;;;;;5055032;28;20477;-57
2024/01/05 01:30:00;;;;;;;12.70;4.20;;;;;;;;;;5071891;28;20127;-57
2024/01/05 01:32:25;;;;;;;9.80;4.50;;;;;;;;;;5065583;28;20350;-57
2024/01/05 01:34:51;;;;;;;9.00;3.50;;;;;;;;;;5072650;28;20025;-57
2024/01/05 01:37:16;;;;;;;9.30;3.60;;;;;;;;;;5071975;28;20021;-57
2024/01/05 01:39:41;;;;;;;9.68;3.70;;;;;;;;;;5067600;28;20074;-57
2024/01/05 01:42:06;;;;;;;8.20;3.23;;;;;;;;;;5080382;28;20024;-57
2024/01/05 01:44:31;;;;;;;8.93;4.07;;;;;;;;;;5054953;28;20410;-56
2024/01/05 01:46:57;;;;;;;10.68;4.03;;;;;;;;;;5061129;28;20064;-57
2024/01/05 01:49:23;;;;;;;9.43;3.55;;;;;;;;;;5057078;28;20024;-57
2024/01/05 01:51:49;;;;;;;8.60;3.63;;;;;;;;;;5069603;28;20024;-57
2024/01/05 01:54:14;;;;;;;10.68;3.83;;;;;;;;;;5052965;28;20021;-57
2024/01/05 01:56:39;;;;;;;8.13;3.40;;;;;;;;;;5052978;28;20117;-57
2024/01/05 01:59:05;;;;;;;9.52;3.90;;;;;;;;;;5060804;28;20017;-57
2024/01/05 02:01:30;;;;;;;9.55;3.97;;;;;;;;;;5067083;28;20480;-57
2024/01/05 02:03:55;;;;;;;10.47;4.10;;;;;;;;;;5067530;28;20048;-57
2024/01/05 02:06:21;;;;;;;10.60;4.13;;;;;;;;;;5059764;28;20531;-57
2024/01/05 02:08:46;;;;;;;9.13;3.70;;;;;;;;;;5073041;28;20036;-58
2024/01/05 02:11:12;;;;;;;7.93;3.42;;;;;;;;;;5061915;28;20135;-58
2024/01/05 02:13:37;;;;;;;9.02;3.85;;;;;;;;;;5074140;28;20031;-57
2024/01/05 02:16:02;;;;;;;10.60;4.20;;;;;;;;;;5056821;28;20072;-58
2024/01/05 02:18:27;;;;;;;9.37;3.67;;;;;;;;;;5053748;28;20029;-57
2024/01/05 02:20:54;;;;;;;8.73;3.40;;;;;;;;;;5064892;28;20077;-57
2024/01/05 02:23:21;;;;;;;9.85;4.07;;;;;;;;;;5071295;28;20028;-57
2024/01/05 02:25:46;;;;;;;9.30;3.67;;;;;;;;;;5058523;28;20056;-56
2024/01/05 02:28:11;;;;;;;9.37;3.83;;;;;;;;;;5062653;28;20412;-57
2024/01/05 02:30:36;;;;;;;9.57;4.07;;;;;;;;;;5067481;28;20047;-59
2024/01/05 02:33:01;;;;;;;9.88;3.78;;;;;;;;;;5063425;28;20025;-58
2024/01/05 02:35:26;;;;;;;8.77;3.80;;;;;;;;;;5066932;28;20412;-58
2024/01/05 02:37:53;;;;;;;8.73;3.97;;;;;;;;;;5068017;28;20036;-58
2024/01/05 02:40:18;;;;;;;10.63;3.95;;;;;;;;;;5069970;28;20107;-56
2024/01/05 02:42:43;;;;;;;9.05;4.00;;;;;;;;;;5070056;28;20036;-58
2024/01/05 02:45:08;;;;;;;10.77;4.37;;;;;;;;;;5075953;28;20032;-58
2024/01/05 02:47:33;;;;;;;11.57;4.20;;;;;;;;;;5070771;28;20027;-58
2024/01/05 02:49:58;;;;;;;8.60;3.67;;;;;;;;;;5070821;28;20025;-58
2024/01/05 02:52:23;;;;;;;9.68;4.03;;;;;;;;;;5068802;28;20020;-58
2024/01/05 02:54:49;;;;;;;10.97;4.30;;;;;;;;;;5067635;28;20025;-58
2024/01/05 02:57:14;;;;;;;11.63;4.38;;;;;;;;;;5059440;28;20558;-59
2024/01/05 02:59:39;;;;;;;9.98;3.75;;;;;;;;;;5067824;28;20477;-56
2024/01/05 03:02:04;;;;;;;8.23;3.57;;;;;;;;;;5060962;28;20024;-58
2024/01/05 03:04:29;;;;;;;9.67;4.23;;;;;;;;;;5062450;28;20033;-57
2024/01/05 03:06:54;;;;;;;10.02;4.18;;;;;;;;;;5064274;28;20419;-56
2024/01/05 03:09:20;;;;;;;8.45;3.50;;;;;;;;;;5072483;28;20081;-59
2024/01/05 03:11:45;;;;;;;8.70;3.63;;;;;;;;;;5061411;28;20036;-56
2024/01/05 03:14:10;;;;;;;10.02;4.32;;;;;;;;;;5052071;28;20017;-58
2024/01/05 03:16:35;;;;;;;9.27;3.70;;;;;;;;;;5052022;28;20146;-56
2024/01/05 03:19:00;;;;;;;8.60;3.88;;;;;;;;;;5069416;28;20025;-58
2024/01/05 03:21:26;;;;;;;8.27;3.30;;;;;;;;;;5066658;28;20017;-56
2024/01/05 03:23:51;;;;;;;9.63;3.53;;;;;;;;;;5068469;28;20511;-57
2024/01/05 03:26:17;;;;;;;8.48;3.42;;;;;;;;;;5054602;28;20025;-57
2024/01/05 03:28:43;;;;;;;9.65;3.90;;;;;;;;;;5066432;28;20387;-58
2024/01/05 03:31:12;;;;;;;12.07;4.07;;;;;;;;;;5061504;28;20427;-58
2024/01/05 03:33:38;;;;;;;11.75;4.05;;;;;;;;;;5067430;28;20103;-58
2024/01/05 03:36:03;;;;;;;9.20;3.53;;;;;;;;;;5069932;28;20437;-58
2024/01/05 03:38:28;;;;;;;9.98;3.85;;;;;;;;;;5065673;28;20039;-58
2024/01/05 03:40:53;;;;;;;9.13;3.72;;;;;;;;;;5058034;28;20116;-58
2024/01/05 03:43:18;;;;;;;10.13;3.45;;;;;;;;;;5050024;28;20715;-57
2024/01/05 03:45:44;;;;;;;10.18;3.97;;;;;;;;;;5053803;28;20013;-57
2024/01/05 03:48:09;;;;;;;8.65;3.88;;;;;;;;;;5068385;28;20066;-58
2024/01/05 03:50:34;;;;;;;10.07;3.92;;;;;;;;;;5063897;28;20527;-58
2024/01/05 03:52:59;;;;;;;11.85;4.40;;;;;;;;;;5050430;28;20151;-57
2024/01/05 03:55:25;;;;;;;11.27;4.57;;;;;;;;;;5051595;28;20416;-58
2024/01/05 03:57:50;;;;;;;10.23;4.25;;;;;;;;;;5056962;28;20032;-57
2024/01/05 04:00:15;;;;;;;10.18;3.50;;;;;;;;;;5065119;28;20094;-58
2024/01/05 04:02:40;;;;;;;10.45;4.00;;;;;;;;;;5069388;28;20465;-58
2024/01/05 04:05:06;;;;;;;10.43;3.95;;;;;;;;;;5070398;28;20468;-57
2024/01/05 04:07:31;;;;;;;9.77;3.60;;;;;;;;;;5067159;28;20016;-57
2024/01/05 04:09:56;;;;;;;8.40;3.67;;;;;;;;;;5062497;28;20025;-58
2024/01/05 04:12:21;;;;;;;9.90;3.55;;;;;;;;;;5049580;28;20086;-57
2024/01/05 04:14:46;;;;;;;8.70;3.63;;;;;;;;;;5049925;28;20358;-58
2024/01/05 04:17:11;;;;;;;9.50;3.90;;;;;;;;;;5052925;28;20079;-57
2024/01/05 04:19:36;;;;;;;9.63;3.47;;;;;;;;;;5062892;28;20021;-58
2024/01/05 04:22:04;;;;;;;10.68;4.35;;;;;;;;;;5067897;28;20107;-58
2024/01/05 04:24:29;;;;;;;11.68;4.20;;;;;;;;;;5068046;28;20595;-58
2024/01/05 04:26:54;;;;;;;8.40;3.63;;;;;;;;;;5068251;28;20109;-58
2024/01/05 04:29:19;;;;;;;9.17;4.10;;;;;;;;;;5063244;28;20431;-58
2024/01/05 04:31:44;;;;;;;9.77;4.15;;;;;;;;;;5067358;28;20103;-58
2024/01/05 04:34:09;;;;;;;11.63;4.07;;;;;;;;;;5067808;28;20036;-58
2024/01/05 04:36:35;;;;;;;10.77;3.73;;;;;;;;;;5055389;28;20416;-58
2024/01/05 04:39:00;;;;;;;9.38;3.70;;;;;;;;;;5071015;28;20493;-58
2024/01/05 04:41:26;;;;;;;10.45;3.97;;;;;;;;;;5061062;28;20534;-59
2024/01/05 04:43:51;;;;;;;11.10;3.90;;;;;;;;;;5069334;28;20040;-57
2024/01/05 04:46:17;;;;;;;9.60;3.40;;;;;;;;;;5064099;28;20439;-58
2024/01/05 04:48:42;;;;;;;11.52;3.70;;;;;;;;;;5058164;28;20021;-58
2024/01/05 04:51:07;;;;;;;11.40;3.90;;;;;;;;;;5064396;28;20021;-58
2024/01/05 04:53:32;;;;;;;11.20;4.20;;;;;;;;;;5063450;28;20021;-57
2024/01/05 04:55:57;;;;;;;10.13;3.70;;;;;;;;;;5054336;28;20064;-57
2024/01/05 04:58:24;;;;;;;8.63;3.47;;;;;;;;;;5059810;28;20025;-57
2024/01/05 05:00:49;;;;;;;8.90;3.78;;;;;;;;;;5068070;28;20396;-59
2024/01/05 05:03:14;;;;;;;10.77;4.07;;;;;;;;;;5060327;28;20017;-59
2024/01/05 05:05:39;;;;;;;9.05;3.78;;;;;;;;;;5067459;28;20091;-58
2024/01/05 05:08:05;;;;;;;9.60;3.97;;;;;;;;;;5071997;28;20051;-57
2024/01/05 05:10:30;;;;;;;11.57;3.97;;;;;;;;;;5073425;28;20101;-57
2024/01/05 05:12:55;;;;;;;11.67;3.57;;;;;;;;;;5072135;28;20546;-57
2024/01/05 05:15:20;;;;;;;10.00;3.38;;;;;;;;;;5052993;28;20021;-57
2024/01/05 05:17:45;;;;;;;10.87;4.03;;;;;;;;;;5059183;28;20063;-58
2024/01/05 05:20:11;;;;;;;11.05;3.88;;;;;;;;;;5059073;28;20047;-58
2024/01/05 05:22:36;;;;;;;11.53;4.47;;;;;;;;;;5059362;28;20100;-57
2024/01/05 05:25:01;;;;;;;10.40;3.60;;;;;;;;;;5060964;28;20029;-58
2024/01/05 05:27:26;;;;;;;11.93;4.27;;;;;;;;;;5058366;28;20069;-57
2024/01/05 05:29:51;;;;;;;11.10;4.20;;;;;;;;;;5064028;28;20078;-58
2024/01/05 05:32:17;;;;;;;11.77;4.60;;;;;;;;;;5065582;28;20066;-58
2024/01/05 05:34:44;;;;;;;15.53;5.03;;;;;;;;;;5072458;28;20469;-58
2024/01/05 05:37:09;;;;;;;12.70;4.63;;;;;;;;;;5066382;28;20042;-58
2024/01/05 05:39:34;;;;;;;14.52;5.10;;;;;;;;;;5064473;28;20474;-57
2024/01/05 05:41:59;;;;;;;11.93;4.10;;;;;;;;;;5060730;28;20115;-56
2024/01/05 05:44:24;;;;;;;12.77;4.85;;;;;;;;;;5068711;28;20043;-57
2024/01/05 05:46:49;;;;;;;14.90;5.18;;;;;;;;;;5068164;28;20024;-57
2024/01/05 05:49:15;;;;;;;15.73;5.25;;;;;;;;;;5053762;28;20025;-56
2024/01/05 05:51:40;;;;;;;10.60;4.47;;;;;;;;;;5060816;28;20012;-57
2024/01/05 05:54:05;;;;;;;11.52;4.80;;;;;;;;;;5068655;28;20155;-56
2024/01/05 05:56:30;;;;;;;13.97;5.03;;;;;;;;;;5068584;28;20032;-58
2024/01/05 05:58:55;;;;;;;16.17;6.25;;;;;;;;;;5055653;28;20558;-57
2024/01/05 06:01:20;;;;;;;16.52;6.30;;;;;;;;;;5051234;28;20041;-56
2024/01/05 06:03:46;;;;;;;14.00;5.43;;;;;;;;;;5066458;28;20020;-58
2024/01/05 06:06:21;;;;;;;17.73;6.23;;;;;;;;;;5069159;28;20047;-59
2024/01/05 06:08:46;;;;;;;14.77;5.55;;;;;;;;;;5067886;28;20115;-58
2024/01/05 06:11:18;;;;;;;15.20;5.15;;;;;;;;;;5066939;28;20548;-57
2024/01/05 06:13:43;;;;;;;15.90;5.75;;;;;;;;;;5064990;28;20468;-58
2024/01/05 06:16:08;;;;;;;20.27;6.90;;;;;;;;;;5055587;28;20058;-57
2024/01/05 06:18:34;;;;;;;14.00;5.60;;;;;;;;;;5065522;28;20037;-56
2024/01/05 06:20:59;;;;;;;19.92;6.88;;;;;;;;;;5056353;28;20078;-59
2024/01/05 06:23:25;;;;;;;15.60;5.93;;;;;;;;;;5071488;28;20028;-58
2024/01/05 06:25:50;;;;;;;13.80;5.43;;;;;;;;;;5072281;28;20021;-58
2024/01/05 06:28:15;;;;;;;16.10;6.28;;;;;;;;;;5071875;28;20492;-58
2024/01/05 06:30:41;;;;;;;18.15;6.28;;;;;;;;;;5071395;28;20024;-58
2024/01/05 06:33:07;;;;;;;15.18;5.68;;;;;;;;;;5064892;28;20074;-58
2024/01/05 06:35:32;;;;;;;18.00;6.30;;;;;;;;;;5066127;28;20027;-57
2024/01/05 06:37:57;;;;;;;15.80;5.93;;;;;;;;;;5067016;28;20021;-58
2024/01/05 06:40:22;;;;;;;19.58;6.63;;;;;;;;;;5054896;28;20106;-59
2024/01/05 06:42:47;;;;;;;16.63;6.17;;;;;;;;;;5059502;28;20013;-59
2024/01/05 06:45:13;;;;;;;17.50;6.80;;;;;;;;;;5064345;28;20443;-59
2024/01/05 06:47:38;;;;;;;21.37;6.67;;;;;;;;;;5053288;28;20393;-60
2024/01/05 06:50:03;;;;;;;18.63;6.68;;;;;;;;;;5057162;28;20021;-59
2024/01/05 06:52:28;;;;;;;15.67;6.43;;;;;;;;;;5056492;28;20108;-58
2024/01/05 06:54:53;;;;;;;18.27;6.13;;;;;;;;;;5053495;28;20711;-58
2024/01/05 06:57:18;;;;;;;15.67;6.57;;;;;;;;;;5065138;28;20029;-59
2024/01/05 06:59:43;;;;;;;13.93;6.03;;;;;;;;;;5068605;28;20104;-58
2024/01/05 07:02:11;;;;;;;17.00;5.67;;;;;;;;;;5060199;28;20028;-58
2024/01/05 07:04:36;;;;;;;17.80;5.82;;;;;;;;;;5058963;28;20025;-58
2024/01/05 07:07:01;;;;;;;14.05;5.63;;;;;;;;;;5065355;28;20499;-58
2024/01/05 07:09:26;;;;;;;17.13;6.03;;;;;;;;;;5069420;28;20062;-59
2024/01/05 07:11:51;;;;;;;18.53;6.13;;;;;;;;;;5070091;28;20054;-58
2024/01/05 07:14:17;;;;;;;17.33;5.93;;;;;;;;;;5059653;28;20013;-58
2024/01/05 07:16:42;;;;;;;19.33;6.95;;;;;;;;;;5063493;28;20466;-59
2024/01/05 07:19:07;;;;;;;18.70;5.93;;;;;;;;;;5068779;28;20100;-58
2024/01/05 07:21:40;;;;;;;17.23;6.10;;;;;;;;;;5059228;28;20068;-58
2024/01/05 07:24:05;;;;;;;16.45;5.97;;;;;;;;;;5059761;28;20070;-58
2024/01/05 07:26:30;;;;;;;17.75;6.45;;;;;;;;;;5070279;28;20099;-58
2024/01/05 07:28:56;;;;;;;17.55;6.57;;;;;;;;;;5068691;28;20036;-58
2024/01/05 07:31:22;;;;;;;17.98;5.97;;;;;;;;;;5059747;28;20515;-59
2024/01/05 07:33:47;;;;;;;18.70;6.30;;;;;;;;;;5055673;28;20036;-58
2024/01/05 07:36:12;;;;;;;16.38;5.63;;;;;;;;;;5062803;28;20043;-58
2024/01/05 07:38:37;;;;;;;20.70;6.75;;;;;;;;;;5068485;28;20090;-57
2024/01/05 07:41:03;;;;;;;14.20;6.30;;;;;;;;;;5064520;28;20043;-58
2024/01/05 07:43:29;;;;;;;18.27;5.90;;;;;;;;;;5072883;28;20051;-58
2024/01/05 07:45:54;;;;;;;15.13;5.50;;;;;;;;;;5063988;28;20472;-57
2024/01/05 07:48:19;;;;;;;16.75;5.70;;;;;;;;;;5060466;28;20100;-58
2024/01/05 07:50:45;;;;;;;14.65;5.47;;;;;;;;;;5057713;28;20286;-58
2024/01/05 07:53:11;;;;;;;13.43;4.90;;;;;;;;;;5055370;28;20023;-58
2024/01/05 07:55:37;;;;;;;;;;;;;;;;;;5063261;28;20048;-58
2024/01/05 07:58:02;;;;;;;14.65;5.22;;;;;;;;;;5068886;28;20384;-59
2024/01/05 08:00:27;;;;;;;15.67;5.37;;;;;;;;;;5057597;28;20013;-58
2024/01/05 08:02:52;;;;;;;16.60;5.72;;;;;;;;;;5069519;28;20440;-58
2024/01/05 08:05:17;;;;;;;14.40;4.97;;;;;;;;;;5061457;28;20027;-58
2024/01/05 08:07:45;;;;;;;14.87;5.37;;;;;;;;;;5057709;28;20067;-59
2024/01/05 08:10:11;;;;;;;14.75;5.05;;;;;;;;;;5068881;28;20029;-57
2024/01/05 08:12:36;;;;;;;13.20;5.03;;;;;;;;;;5073706;28;20020;-59
2024/01/05 08:15:01;;;;;;;16.53;5.90;;;;;;;;;;5069635;28;20037;-59
2024/01/05 08:17:26;;;;;;;14.87;5.50;;;;;;;;;;5074226;28;20028;-57
2024/01/05 08:19:51;;;;;;;15.50;5.30;;;;;;;;;;5073895;28;20028;-59
2024/01/05 08:22:16;;;;;;;13.35;5.53;;;;;;;;;;5073624;28;20441;-59
2024/01/05 08:24:42;;;;;;;12.50;4.78;;;;;;;;;;5073125;28;20032;-59
2024/01/05 08:27:07;;;;;;;13.37;5.80;;;;;;;;;;5074019;28;20024;-57
2024/01/05 08:29:33;;;;;;;14.82;5.20;;;;;;;;;;5074258;28;20035;-59
2024/01/05 08:31:59;;;;;;;14.32;5.97;;;;;;;;;;5073382;28;20396;-56
2024/01/05 08:34:25;;;;;;;15.15;5.10;;;;;;;;;;5064612;28;20023;-59
2024/01/05 08:36:50;;;;;;;13.32;5.53;;;;;;;;;;5073576;28;20070;-59
2024/01/05 08:39:15;;;;;;;15.57;6.72;;;;;;;;;;5073950;28;20025;-59
2024/01/05 08:41:44;;;;;;;16.75;5.90;;;;;;;;;;5073588;28;20103;-58
2024/01/05 08:44:09;;;;;;;13.60;5.47;;;;;;;;;;5072179;28;20388;-59
2024/01/05 08:46:34;;;;;;;13.60;5.33;;;;;;;;;;5067142;28;20024;-59
2024/01/05 08:48:59;;;;;;;12.33;5.20;;;;;;;;;;5068650;28;20078;-57
2024/01/05 08:51:24;;;;;;;15.25;5.50;;;;;;;;;;5075394;28;20158;-59
2024/01/05 08:53:49;;;;;;;14.65;5.90;;;;;;;;;;5073384;28;20025;-57
2024/01/05 08:56:14;;;;;;;11.63;4.93;;;;;;;;;;5072556;28;20031;-57
2024/01/05 08:58:40;;;;;;;13.13;5.40;;;;;;;;;;5073400;28;20499;-58
2024/01/05 09:01:05;;;;;;;12.13;5.45;;;;;;;;;;5072442;28;20058;-58
2024/01/05 09:03:31;;;;;;;11.35;5.53;;;;;;;;;;5070734;28;20036;-58
2024/01/05 09:05:56;;;;;;;12.97;5.80;;;;;;;;;;5056228;28;20033;-59
2024/01/05 09:08:21;;;;;;;14.55;5.60;;;;;;;;;;5067243;28;20021;-57
2024/01/05 09:10:47;;;;;;;14.50;6.17;;;;;;;;;;5071933;28;20077;-56
2024/01/05 09:13:12;;;;;;;10.88;5.35;;;;;;;;;;5058221;28;20099;-59
2024/01/05 09:15:37;;;;;;;11.90;4.63;;;;;;;;;;5062889;28;20110;-58
2024/01/05 09:18:02;;;;;;;13.07;5.40;;;;;;;;;;5069416;28;20547;-58
2024/01/05 09:20:28;;;;;;;13.90;4.72;;;;;;;;;;5072981;28;20414;-58
2024/01/05 09:22:53;;;;;;;10.63;4.63;;;;;;;;;;5073019;28;20024;-58
2024/01/05 09:25:18;;;;;;;11.95;4.60;;;;;;;;;;5072134;28;20024;-58
2024/01/05 09:27:43;;;;;;;11.03;4.73;;;;;;;;;;5073795;28;20023;-58
2024/01/05 09:30:09;;;;;;;10.75;4.28;;;;;;;;;;5072974;28;20055;-58
2024/01/05 09:32:35;;;;;;;13.10;3.97;;;;;;;;;;5071955;28;20047;-59
2024/01/05 09:35:00;;;;;;;11.63;4.47;;;;;;;;;;5071701;28;20049;-58
2024/01/05 09:37:25;;;;;;;9.83;3.77;;;;;;;;;;5072411;28;21087;-58
2024/01/05 09:39:50;;;;;;;7.67;3.53;;;;;;;;;;5072853;28;20016;-58
2024/01/05 09:42:15;;;;;;;10.43;3.65;;;;;;;;;;5072349;28;20055;-59
2024/01/05 09:44:42;;;;;;;8.40;3.50;;;;;;;;;;5071433;28;20036;-58
2024/01/05 09:47:07;;;;;;;10.68;3.92;;;;;;;;;;5072517;28;20415;-58
2024/01/05 09:49:33;;;;;;;9.27;3.72;;;;;;;;;;5072486;28;20112;-58
2024/01/05 09:51:59;;;;;;;8.93;3.53;;;;;;;;;;5070232;28;20490;-58
2024/01/05 09:54:24;;;;;;;9.23;3.65;;;;;;;;;;5054263;28;20036;-58
2024/01/05 09:56:50;;;;;;;7.90;3.33;;;;;;;;;;5070196;28;20021;-59
2024/01/05 09:59:18;;;;;;;13.23;3.58;;;;;;;;;;5069051;28;20027;-58
2024/01/05 10:01:46;;;;;;;9.73;3.25;;;;;;;;;;5072169;28;20055;-59
2024/01/05 10:04:12;;;;;;;10.10;3.30;;;;;;;;;;5072126;28;20016;-58
2024/01/05 10:06:37;;;;;;;9.48;3.15;;;;;;;;;;5072497;28;20459;-58
2024/01/05 10:09:02;;;;;;;10.73;3.53;;;;;;;;;;5070957;28;20052;-58
2024/01/05 10:11:31;;;;;;;10.17;3.13;;;;;;;;;;5071875;28;20049;-57
2024/01/05 10:13:58;;;;;;;10.32;2.88;;;;;;;;;;5065198;28;20020;-58
2024/01/05 10:16:27;;;;;;;10.52;3.38;;;;;;;;;;5071969;28;20016;-58
2024/01/05 10:18:52;;;;;;;9.95;3.47;;;;;;;;;;5068539;28;20036;-58
2024/01/05 10:21:18;;;;;;;8.82;3.65;;;;;;;;;;5071472;28;20016;-58
2024/01/05 10:23:43;;;;;;;10.85;3.20;;;;;;;;;;5071695;28;20098;-58
2024/01/05 10:26:16;;;;;;;9.33;2.90;;;;;;;;;;5072054;28;20415;-59
2024/01/05 10:28:42;;;;;;;8.50;3.05;;;;;;;;;;5056205;28;20028;-58
2024/01/05 10:31:12;;;;;;;7.13;2.85;;;;;;;;;;5068244;28;20104;-58
2024/01/05 10:33:55;;;;;;;8.27;2.70;;;;;;;;;;5067976;28;20363;-58
2024/01/05 10:36:21;;;;;;;11.07;2.65;;;;;;;;;;5051960;28;20021;-58
2024/01/05 10:38:46;;;;;;;8.70;2.50;;;;;;;;;;5060189;28;20551;-57
2024/01/05 10:41:12;;;;;;;9.25;2.47;;;;;;;;;;5071345;28;20020;-58
2024/01/05 10:43:37;;;;;;;9.80;2.60;;;;;;;;;;5059099;28;20047;-58
2024/01/05 10:46:03;;;;;;;7.23;2.30;;;;;;;;;;5052152;28;20052;-58
2024/01/05 10:48:29;;;;;;;8.38;2.40;;;;;;;;;;5057824;28;20802;-58
2024/01/05 10:50:56;;;;;;;9.25;2.40;;;;;;;;;;5072376;28;20020;-57
2024/01/05 10:53:21;;;;;;;6.57;2.15;;;;;;;;;;5071204;28;20043;-58
2024/01/05 10:55:47;;;;;;;6.95;2.20;;;;;;;;;;5071583;28;20064;-57
2024/01/05 10:58:12;;;;;;;10.77;2.50;;;;;;;;;;5070198;28;20031;-58
2024/01/05 11:00:38;;;;;;;8.57;2.00;;;;;;;;;;5071327;28;20017;-58
2024/01/05 11:03:08;;;;;;;8.82;2.30;;;;;;;;;;5071106;28;20021;-58
2024/01/05 11:05:34;;;;;;;6.30;2.08;;;;;;;;;;5071379;28;20106;-58
2024/01/05 11:08:00;;;;;;;6.50;2.37;;;;;;;;;;5061069;28;20052;-58
2024/01/05 11:10:55;;;;;;;7.38;2.60;;;;;;;;;;5061923;28;20032;-59
2024/01/05 11:13:20;;;;;;;7.00;2.38;;;;;;;;;;5063926;28;20033;-58
2024/01/05 11:16:04;;;;;;;6.15;2.50;;;;;;;;;;5071192;28;20016;-58
2024/01/05 11:18:48;;;;;;;10.05;2.90;;;;;;;;;;5069743;28;20033;-58
2024/01/05 11:21:14;;;;;;;;;;;;;;;;;;5070820;28;20155;-57
2024/01/05 11:23:40;;;;;;;7.80;2.58;;;;;;;;;;5070331;28;19939;-58
2024/01/05 11:26:06;;;;;;;9.80;3.35;;;;;;;;;;5070775;28;20048;-56
2024/01/05 11:28:31;;;;;;;8.13;2.88;;;;;;;;;;5060564;28;20831;-57
2024/01/05 11:30:56;;;;;;;9.80;2.78;;;;;;;;;;5066426;28;20020;-59
2024/01/05 11:33:40;;;;;;;6.05;2.63;;;;;;;;;;5057850;28;20013;-57
2024/01/05 11:36:06;;;;;;;7.88;2.70;;;;;;;;;;5065261;28;20036;-57
2024/01/05 11:38:31;;;;;;;7.85;2.40;;;;;;;;;;5068247;28;20518;-57
2024/01/05 11:40:56;;;;;;;10.60;2.90;;;;;;;;;;5067005;28;20516;-58
2024/01/05 11:43:30;;;;;;;10.30;3.00;;;;;;;;;;5069230;28;20020;-59
2024/01/05 11:45:55;;;;;;;7.78;2.33;;;;;;;;;;5076602;28;20043;-58
2024/01/05 11:48:51;;;;;;;7.93;2.50;;;;;;;;;;5074831;28;20481;-58
2024/01/05 11:51:16;;;;;;;8.10;2.85;;;;;;;;;;5049977;28;20033;-59
2024/01/05 11:53:43;;;;;;;8.00;2.70;;;;;;;;;;5063318;28;20032;-59
2024/01/05 11:56:10;;;;;;;8.45;2.97;;;;;;;;;;5069362;28;20035;-59
2024/01/05 11:58:37;;;;;;;7.97;2.92;;;;;;;;;;5072797;28;21242;-58
2024/01/05 12:01:05;;;;;;;7.90;2.72;;;;;;;;;;5081057;28;20096;-59
2024/01/05 12:03:30;;;;;;;9.25;3.00;;;;;;;;;;5069775;28;20020;-59
2024/01/05 12:05:56;;;;;;;10.23;2.93;;;;;;;;;;5081347;28;20034;-59
2024/01/05 12:08:21;;;;;;;8.50;2.88;;;;;;;;;;5070229;28;20361;-57
2024/01/05 12:10:51;;;;;;;7.95;2.90;;;;;;;;;;5066228;28;20485;-59
2024/01/05 12:13:22;;;;;;;8.88;2.50;;;;;;;;;;5060166;28;20569;-59
2024/01/05 12:15:50;;;;;;;9.25;2.95;;;;;;;;;;5061737;28;20120;-59
2024/01/05 12:18:16;;;;;;;8.90;2.83;;;;;;;;;;5068947;28;20032;-59
2024/01/05 12:20:41;;;;;;;8.88;2.85;;;;;;;;;;5060402;28;20374;-59
2024/01/05 12:23:07;;;;;;;7.50;2.67;;;;;;;;;;5064584;28;20492;-59
2024/01/05 12:25:35;;;;;;;8.13;3.35;;;;;;;;;;5070077;28;20055;-59
2024/01/05 12:28:00;;;;;;;10.00;2.80;;;;;;;;;;5056224;28;20043;-59
2024/01/05 12:30:26;;;;;;;7.20;2.58;;;;;;;;;;5067276;28;20063;-59
2024/01/05 12:32:52;;;;;;;10.02;3.63;;;;;;;;;;5062830;28;20139;-59
2024/01/05 12:35:18;;;;;;;7.43;2.55;;;;;;;;;;5065173;28;20481;-59
2024/01/05 12:37:53;;;;;;;9.57;2.78;;;;;;;;;;5073452;28;20036;-59
2024/01/05 12:40:28;;;;;;;9.65;3.03;;;;;;;;;;5063307;28;20047;-60
2024/01/05 12:42:54;;;;;;;10.70;3.13;;;;;;;;;;5069383;28;20095;-58
2024/01/05 12:45:23;;;;;;;8.45;2.75;;;;;;;;;;5064316;28;20076;-59
2024/01/05 12:47:51;;;;;;;13.38;3.20;;;;;;;;;;5069076;28;20107;-59
2024/01/05 12:50:26;;;;;;;6.78;2.75;;;;;;;;;;5072944;28;20681;-59
2024/01/05 12:52:52;;;;;;;7.30;2.55;;;;;;;;;;5076961;28;20426;-59
2024/01/05 12:55:27;;;;;;;8.00;2.65;;;;;;;;;;5070597;28;20021;-59
2024/01/05 12:57:52;;;;;;;7.15;2.03;;;;;;;;;;5082365;28;20115;-58
2024/01/05 13:00:17;;;;;;;7.70;2.20;;;;;;;;;;5073419;28;20055;-58
2024/01/05 13:02:43;;;;;;;8.73;2.43;;;;;;;;;;5076586;28;20100;-58
2024/01/05 13:05:26;;;;;;;6.82;2.05;;;;;;;;;;5076119;28;20134;-59
2024/01/05 13:07:53;;;;;;;7.22;2.00;;;;;;;;;;5073289;28;20033;-58
2024/01/05 13:10:18;;;;;;;8.20;1.80;;;;;;;;;;5073080;28;20016;-59
2024/01/05 13:12:46;;;;;;;6.00;1.50;;;;;;;;;;5065545;28;20141;-60
2024/01/05 13:15:11;;;;;;;6.85;2.10;;;;;;;;;;5078174;28;20032;-59
2024/01/05 13:17:36;;;;;;;6.10;1.80;;;;;;;;;;5073065;28;20504;-59
2024/01/05 13:20:01;;;;;;;8.50;2.28;;;;;;;;;;5068388;28;20368;-58
2024/01/05 13:22:27;;;;;;;7.82;1.80;;;;;;;;;;5063514;28;20016;-60
2024/01/05 13:24:52;;;;;;;10.85;2.05;;;;;;;;;;5072141;28;20488;-59
2024/01/05 13:27:17;;;;;;;6.07;1.90;;;;;;;;;;5072874;28;20028;-59
2024/01/05 13:29:45;;;;;;;7.55;2.17;;;;;;;;;;5080896;28;20025;-59
2024/01/05 13:32:10;;;;;;;6.07;1.83;;;;;;;;;;5070762;28;20028;-57
2024/01/05 13:34:35;;;;;;;6.45;1.80;;;;;;;;;;5067480;28;20023;-59
2024/01/05 13:37:00;;;;;;;7.07;2.08;;;;;;;;;;5067981;28;20052;-59
2024/01/05 13:39:25;;;;;;;6.82;2.08;;;;;;;;;;5074274;28;20048;-58
2024/01/05 13:41:51;;;;;;;9.13;2.40;;;;;;;;;;5067348;28;20032;-58
2024/01/05 13:44:16;;;;;;;8.10;2.60;;;;;;;;;;5071963;28;20052;-58
2024/01/05 13:46:41;;;;;;;7.10;2.42;;;;;;;;;;5072385;28;20361;-59
2024/01/05 13:49:06;;;;;;;8.95;2.33;;;;;;;;;;5072274;28;20028;-58
2024/01/05 13:51:31;;;;;;;6.43;2.67;;;;;;;;;;5066340;28;20047;-58
2024/01/05 13:53:57;;;;;;;7.63;2.10;;;;;;;;;;5067494;28;20055;-58
2024/01/05 13:56:22;;;;;;;5.97;1.83;;;;;;;;;;5074939;28;20088;-57
2024/01/05 13:58:47;;;;;;;9.48;3.17;;;;;;;;;;5074647;28;20033;-58
2024/01/05 14:01:12;;;;;;;7.75;2.33;;;;;;;;;;5070885;28;20036;-59
2024/01/05 14:03:38;;;;;;;6.17;1.70;;;;;;;;;;5073250;28;20519;-59
2024/01/05 14:06:08;;;;;;;7.78;2.30;;;;;;;;;;5072523;28;20656;-59
2024/01/05 14:08:33;;;;;;;8.63;2.30;;;;;;;;;;5071906;28;20044;-59
2024/01/05 14:10:58;;;;;;;9.17;2.23;;;;;;;;;;5078691;28;20484;-59
2024/01/05 14:13:23;;;;;;;7.13;2.20;;;;;;;;;;5078713;28;20388;-60
2024/01/05 14:15:48;;;;;;;7.32;2.42;;;;;;;;;;5071866;28;20656;-58
2024/01/05 14:18:13;;;;;;;6.70;2.13;;;;;;;;;;5074400;28;20035;-59
2024/01/05 14:20:38;;;;;;;6.65;2.17;;;;;;;;;;5071206;28;20020;-58
2024/01/05 14:23:06;;;;;;;10.43;2.20;;;;;;;;;;5068817;28;20056;-59
2024/01/05 14:25:33;;;;;;;7.35;2.10;;;;;;;;;;5066800;28;20032;-59
2024/01/05 14:27:58;;;;;;;5.75;2.00;;;;;;;;;;5069677;28;20043;-58
2024/01/05 14:30:24;;;;;;;9.60;2.90;;;;;;;;;;5071514;28;20476;-58